sensor_id;sensor_type;location;lat;lon;timestamp;P1;durP1;ratioP1;P2;durP2;ratioP2
85875;SDS011;76392;0.000;0.000;2024-02-26T05:43:11;4.55;;;0.65;;
85875;SDS011;76392;0.000;0.000;2024-02-26T05:45:36;3.33;;;0.63;;
85875;SDS011;76392;0.000;0.000;2024-02-26T05:48:02;2.88;;;0.60;;
85875;SDS011;76392;0.000;0.000;2024-02-26T05:50:28;3.83;;;0.60;;
85875;SDS011;76392;0.000;0.000;2024-02-26T05:52:53;5.38;;;0.95;;
85875;SDS011;76392;0.000;0.000;2024-02-26T05:55:19;5.07;;;0.70;;
85875;SDS011;76392;0.000;0.000;2024-02-26T05:57:45;2.58;;;0.50;;
85875;SDS011;76392;0.000;0.000;2024-02-26T06:00:10;4.03;;;0.50;;
85875;SDS011;76392;0.000;0.000;2024-02-26T06:02:38;4.72;;;0.88;;
85875;SDS011;76392;0.000;0.000;2024-02-26T06:05:04;2.90;;;0.50;;
85875;SDS011;76392;0.000;0.000;2024-02-26T06:07:29;3.70;;;0.63;;
85875;SDS011;76392;0.000;0.000;2024-02-26T06:09:55;4.25;;;0.90;;
85875;SDS011;76392;0.000;0.000;2024-02-26T06:12:20;3.33;;;0.70;;
85875;SDS011;76392;0.000;0.000;2024-02-26T06:14:46;4.07;;;0.60;;
85875;SDS011;76392;0.000;0.000;2024-02-26T06:17:12;3.45;;;0.40;;
85875;SDS011;76392;0.000;0.000;2024-02-26T06:19:37;4.40;;;0.60;;
85875;SDS011;76392;0.000;0.000;2024-02-26T06:22:03;3.88;;;0.50;;
85875;SDS011;76392;0.000;0.000;2024-02-26T06:24:29;4.20;;;0.45;;
85875;SDS011;76392;0.000;0.000;2024-02-26T06:26:54;3.72;;;0.60;;
85875;SDS011;76392;0.000;0.000;2024-02-26T06:29:20;3.33;;;0.57;;
85875;SDS011;76392;0.000;0.000;2024-02-26T06:31:45;3.30;;;0.65;;
85875;SDS011;76392;0.000;0.000;2024-02-26T06:34:12;3.03;;;0.45;;
85875;SDS011;76392;0.000;0.000;2024-02-26T06:36:38;3.33;;;0.45;;
85875;SDS011;76392;0.000;0.000;2024-02-26T06:39:03;3.97;;;0.82;;
85875;SDS011;76392;0.000;0.000;2024-02-26T06:41:30;4.70;;;0.45;;
85875;SDS011;76392;0.000;0.000;2024-02-26T06:43:56;4.47;;;0.50;;
85875;SDS011;76392;0.000;0.000;2024-02-26T06:46:22;3.38;;;0.45;;
85875;SDS011;76392;0.000;0.000;2024-02-26T06:48:48;2.30;;;0.40;;
85875;SDS011;76392;0.000;0.000;2024-02-26T06:51:14;3.05;;;0.90;;
85875;SDS011;76392;0.000;0.000;2024-02-26T06:53:40;3.50;;;0.70;;
85875;SDS011;76392;0.000;0.000;2024-02-26T06:56:05;2.20;;;0.63;;
85875;SDS011;76392;0.000;0.000;2024-02-26T06:58:31;3.17;;;0.45;;
85875;SDS011;76392;0.000;0.000;2024-02-26T07:00:57;3.58;;;0.32;;
85875;SDS011;76392;0.000;0.000;2024-02-26T07:03:22;3.88;;;0.43;;
85875;SDS011;76392;0.000;0.000;2024-02-26T07:05:49;3.53;;;0.45;;
85875;SDS011;76392;0.000;0.000;2024-02-26T07:08:15;3.25;;;0.45;;
85875;SDS011;76392;0.000;0.000;2024-02-26T07:10:41;2.83;;;0.40;;
85875;SDS011;76392;0.000;0.000;2024-02-26T07:13:07;2.40;;;0.70;;
85875;SDS011;76392;0.000;0.000;2024-02-26T07:15:32;2.72;;;0.50;;
85875;SDS011;76392;0.000;0.000;2024-02-26T07:17:58;3.20;;;0.70;;
85875;SDS011;76392;0.000;0.000;2024-02-26T07:20:28;4.85;;;0.70;;
85875;SDS011;76392;0.000;0.000;2024-02-26T07:22:57;1.95;;;0.45;;
85875;SDS011;76392;0.000;0.000;2024-02-26T07:25:23;3.70;;;0.75;;
85875;SDS011;76392;0.000;0.000;2024-02-26T07:27:49;2.95;;;0.50;;
85875;SDS011;76392;0.000;0.000;2024-02-26T07:30:15;3.67;;;0.60;;
85875;SDS011;76392;0.000;0.000;2024-02-26T07:32:42;3.60;;;0.47;;
85875;SDS011;76392;0.000;0.000;2024-02-26T07:35:08;2.75;;;0.80;;
85875;SDS011;76392;0.000;0.000;2024-02-26T07:37:33;3.35;;;0.40;;
85875;SDS011;76392;0.000;0.000;2024-02-26T07:40:00;4.70;;;0.70;;
85875;SDS011;76392;0.000;0.000;2024-02-26T07:42:25;4.88;;;0.52;;
85875;SDS011;76392;0.000;0.000;2024-02-26T07:44:51;4.78;;;0.90;;
85875;SDS011;76392;0.000;0.000;2024-02-26T07:47:18;3.53;;;0.40;;
85875;SDS011;76392;0.000;0.000;2024-02-26T07:49:44;3.28;;;0.75;;
85875;SDS011;76392;0.000;0.000;2024-02-26T07:52:10;5.03;;;0.63;;
85875;SDS011;76392;0.000;0.000;2024-02-26T07:54:35;3.05;;;0.70;;
85875;SDS011;76392;0.000;0.000;2024-02-26T07:57:01;3.63;;;0.35;;
85875;SDS011;76392;0.000;0.000;2024-02-26T07:59:30;4.78;;;0.47;;
85875;SDS011;76392;0.000;0.000;2024-02-26T08:01:55;4.88;;;0.43;;
85875;SDS011;76392;0.000;0.000;2024-02-26T08:04:21;4.78;;;0.90;;
85875;SDS011;76392;0.000;0.000;2024-02-26T08:06:48;5.47;;;0.63;;
85875;SDS011;76392;0.000;0.000;2024-02-26T08:09:14;4.28;;;0.63;;
85875;SDS011;76392;0.000;0.000;2024-02-26T08:11:40;1.98;;;0.40;;
85875;SDS011;76392;0.000;0.000;2024-02-26T08:14:06;4.82;;;0.60;;
85875;SDS011;76392;0.000;0.000;2024-02-26T08:16:32;3.33;;;0.40;;
85875;SDS011;76392;0.000;0.000;2024-02-26T08:18:58;3.33;;;0.40;;
85875;SDS011;76392;0.000;0.000;2024-02-26T08:21:23;3.22;;;0.60;;
85875;SDS011;76392;0.000;0.000;2024-02-26T08:23:49;2.58;;;0.40;;
85875;SDS011;76392;0.000;0.000;2024-02-26T08:26:14;3.22;;;0.60;;
85875;SDS011;76392;0.000;0.000;2024-02-26T08:28:40;3.53;;;0.65;;
85875;SDS011;76392;0.000;0.000;2024-02-26T08:31:05;2.88;;;0.45;;
85875;SDS011;76392;0.000;0.000;2024-02-26T08:33:32;3.30;;;0.52;;
85875;SDS011;76392;0.000;0.000;2024-02-26T08:35:59;4.88;;;0.50;;
85875;SDS011;76392;0.000;0.000;2024-02-26T08:38:24;3.17;;;0.70;;
85875;SDS011;76392;0.000;0.000;2024-02-26T08:40:50;3.03;;;0.63;;
85875;SDS011;76392;0.000;0.000;2024-02-26T08:43:15;3.83;;;0.60;;
85875;SDS011;76392;0.000;0.000;2024-02-26T08:45:41;2.33;;;0.30;;
85875;SDS011;76392;0.000;0.000;2024-02-26T08:48:07;6.43;;;0.60;;
85875;SDS011;76392;0.000;0.000;2024-02-26T08:50:32;3.75;;;0.30;;
85875;SDS011;76392;0.000;0.000;2024-02-26T08:52:58;3.15;;;0.30;;
85875;SDS011;76392;0.000;0.000;2024-02-26T08:55:26;3.20;;;0.50;;
85875;SDS011;76392;0.000;0.000;2024-02-26T08:57:51;3.47;;;0.63;;
85875;SDS011;76392;0.000;0.000;2024-02-26T09:00:17;4.20;;;0.43;;
85875;SDS011;76392;0.000;0.000;2024-02-26T09:02:45;2.90;;;0.40;;
85875;SDS011;76392;0.000;0.000;2024-02-26T09:05:12;2.50;;;0.47;;
85875;SDS011;76392;0.000;0.000;2024-02-26T09:07:37;7.40;;;0.50;;
85875;SDS011;76392;0.000;0.000;2024-02-26T09:10:03;3.95;;;0.52;;
85875;SDS011;76392;0.000;0.000;2024-02-26T09:12:29;2.97;;;0.60;;
85875;SDS011;76392;0.000;0.000;2024-02-26T09:14:55;3.28;;;0.50;;
85875;SDS011;76392;0.000;0.000;2024-02-26T09:17:22;3.67;;;1.15;;
85875;SDS011;76392;0.000;0.000;2024-02-26T09:19:48;3.00;;;0.38;;
85875;SDS011;76392;0.000;0.000;2024-02-26T09:22:14;2.50;;;0.43;;
85875;SDS011;76392;0.000;0.000;2024-02-26T09:24:39;3.92;;;0.30;;
85875;SDS011;76392;0.000;0.000;2024-02-26T09:27:05;2.95;;;0.50;;
85875;SDS011;76392;0.000;0.000;2024-02-26T09:29:30;3.65;;;0.40;;
85875;SDS011;76392;0.000;0.000;2024-02-26T09:31:56;3.15;;;0.90;;
85875;SDS011;76392;0.000;0.000;2024-02-26T09:34:21;3.65;;;0.63;;
85875;SDS011;76392;0.000;0.000;2024-02-26T09:36:47;3.22;;;0.82;;
85875;SDS011;76392;0.000;0.000;2024-02-26T09:39:12;2.85;;;0.35;;
85875;SDS011;76392;0.000;0.000;2024-02-26T09:41:39;2.92;;;0.40;;
85875;SDS011;76392;0.000;0.000;2024-02-26T09:44:05;3.83;;;0.50;;
85875;SDS011;76392;0.000;0.000;2024-02-26T09:46:32;3.55;;;0.73;;
85875;SDS011;76392;0.000;0.000;2024-02-26T09:48:57;1.95;;;0.40;;
85875;SDS011;76392;0.000;0.000;2024-02-26T09:51:23;2.35;;;0.40;;
85875;SDS011;76392;0.000;0.000;2024-02-26T09:53:51;6.07;;;0.50;;
85875;SDS011;76392;0.000;0.000;2024-02-26T09:56:19;3.67;;;0.55;;
85875;SDS011;76392;0.000;0.000;2024-02-26T09:58:46;3.42;;;0.40;;
85875;SDS011;76392;0.000;0.000;2024-02-26T10:01:16;3.92;;;0.40;;
85875;SDS011;76392;0.000;0.000;2024-02-26T10:03:42;2.45;;;0.40;;
85875;SDS011;76392;0.000;0.000;2024-02-26T10:06:10;3.25;;;0.52;;
85875;SDS011;76392;0.000;0.000;2024-02-26T10:08:36;10.52;;;1.15;;
85875;SDS011;76392;0.000;0.000;2024-02-26T10:11:02;3.80;;;0.40;;
85875;SDS011;76392;0.000;0.000;2024-02-26T10:13:29;3.88;;;0.32;;
85875;SDS011;76392;0.000;0.000;2024-02-26T10:15:54;2.33;;;0.30;;
85875;SDS011;76392;0.000;0.000;2024-02-26T10:18:20;5.20;;;0.38;;
85875;SDS011;76392;0.000;0.000;2024-02-26T10:21:00;3.13;;;0.55;;
85875;SDS011;76392;0.000;0.000;2024-02-26T10:23:27;4.75;;;0.47;;
85875;SDS011;76392;0.000;0.000;2024-02-26T10:25:53;3.20;;;0.70;;
85875;SDS011;76392;0.000;0.000;2024-02-26T10:28:19;3.50;;;0.40;;
85875;SDS011;76392;0.000;0.000;2024-02-26T10:30:45;4.13;;;0.50;;
85875;SDS011;76392;0.000;0.000;2024-02-26T10:33:10;2.25;;;0.30;;
85875;SDS011;76392;0.000;0.000;2024-02-26T10:35:36;4.53;;;0.50;;
85875;SDS011;76392;0.000;0.000;2024-02-26T10:38:06;4.70;;;0.60;;
85875;SDS011;76392;0.000;0.000;2024-02-26T10:40:32;3.70;;;0.52;;
85875;SDS011;76392;0.000;0.000;2024-02-26T10:43:00;2.72;;;0.70;;
85875;SDS011;76392;0.000;0.000;2024-02-26T10:45:27;4.78;;;1.02;;
85875;SDS011;76392;0.000;0.000;2024-02-26T10:47:52;5.75;;;0.55;;
85875;SDS011;76392;0.000;0.000;2024-02-26T10:50:21;4.05;;;0.55;;
85875;SDS011;76392;0.000;0.000;2024-02-26T10:52:46;2.28;;;0.30;;
85875;SDS011;76392;0.000;0.000;2024-02-26T10:55:16;4.05;;;0.50;;
85875;SDS011;76392;0.000;0.000;2024-02-26T10:57:45;2.35;;;0.68;;
85875;SDS011;76392;0.000;0.000;2024-02-26T11:00:14;2.65;;;0.77;;
85875;SDS011;76392;0.000;0.000;2024-02-26T11:02:40;2.75;;;0.63;;
85875;SDS011;76392;0.000;0.000;2024-02-26T11:05:07;4.07;;;0.50;;
85875;SDS011;76392;0.000;0.000;2024-02-26T11:07:36;4.65;;;1.00;;
85875;SDS011;76392;0.000;0.000;2024-02-26T11:10:03;4.00;;;0.70;;
85875;SDS011;76392;0.000;0.000;2024-02-26T11:12:30;4.07;;;0.80;;
85875;SDS011;76392;0.000;0.000;2024-02-26T11:14:57;2.47;;;0.30;;
85875;SDS011;76392;0.000;0.000;2024-02-26T11:17:27;4.18;;;0.55;;
85875;SDS011;76392;0.000;0.000;2024-02-26T11:19:56;2.83;;;0.30;;
85875;SDS011;76392;0.000;0.000;2024-02-26T11:22:23;3.97;;;0.60;;
85875;SDS011;76392;0.000;0.000;2024-02-26T11:24:51;2.42;;;0.30;;
85875;SDS011;76392;0.000;0.000;2024-02-26T11:27:19;2.58;;;0.50;;
85875;SDS011;76392;0.000;0.000;2024-02-26T11:29:48;2.75;;;0.55;;
85875;SDS011;76392;0.000;0.000;2024-02-26T11:32:17;3.22;;;0.50;;
85875;SDS011;76392;0.000;0.000;2024-02-26T11:34:43;4.00;;;0.38;;
85875;SDS011;76392;0.000;0.000;2024-02-26T11:37:10;5.78;;;0.90;;
85875;SDS011;76392;0.000;0.000;2024-02-26T11:39:36;4.05;;;0.40;;
85875;SDS011;76392;0.000;0.000;2024-02-26T11:42:04;2.83;;;0.40;;
85875;SDS011;76392;0.000;0.000;2024-02-26T11:44:33;5.30;;;0.63;;
85875;SDS011;76392;0.000;0.000;2024-02-26T11:47:00;4.80;;;0.32;;
85875;SDS011;76392;0.000;0.000;2024-02-26T11:49:38;3.38;;;0.50;;
85875;SDS011;76392;0.000;0.000;2024-02-26T11:52:05;3.10;;;1.02;;
85875;SDS011;76392;0.000;0.000;2024-02-26T12:00:14;5.65;;;0.77;;
85875;SDS011;76392;0.000;0.000;2024-02-26T12:02:50;2.92;;;0.40;;
85875;SDS011;76392;0.000;0.000;2024-02-26T12:05:23;3.45;;;0.50;;
85875;SDS011;76392;0.000;0.000;2024-02-26T12:07:53;4.30;;;0.63;;
85875;SDS011;76392;0.000;0.000;2024-02-26T12:12:52;2.78;;;0.30;;
85875;SDS011;76392;0.000;0.000;2024-02-26T12:15:18;3.58;;;0.77;;
85875;SDS011;76392;0.000;0.000;2024-02-26T12:17:48;4.68;;;0.50;;
85875;SDS011;76392;0.000;0.000;2024-02-26T12:20:14;4.07;;;0.80;;
85875;SDS011;76392;0.000;0.000;2024-02-26T12:22:44;2.35;;;0.40;;
85875;SDS011;76392;0.000;0.000;2024-02-26T12:25:12;5.75;;;0.70;;
85875;SDS011;76392;0.000;0.000;2024-02-26T12:27:38;5.07;;;0.63;;
85875;SDS011;76392;0.000;0.000;2024-02-26T12:30:04;2.78;;;0.63;;
85875;SDS011;76392;0.000;0.000;2024-02-26T12:32:32;4.30;;;0.68;;
85875;SDS011;76392;0.000;0.000;2024-02-26T12:34:58;4.32;;;0.60;;
85875;SDS011;76392;0.000;0.000;2024-02-26T12:37:25;3.53;;;0.40;;
85875;SDS011;76392;0.000;0.000;2024-02-26T12:39:52;4.38;;;0.30;;
85875;SDS011;76392;0.000;0.000;2024-02-26T12:42:18;1.83;;;0.60;;
85875;SDS011;76392;0.000;0.000;2024-02-26T12:44:47;4.72;;;0.52;;
85875;SDS011;76392;0.000;0.000;2024-02-26T12:47:12;4.13;;;0.77;;
85875;SDS011;76392;0.000;0.000;2024-02-26T12:49:48;3.53;;;0.63;;
85875;SDS011;76392;0.000;0.000;2024-02-26T12:52:14;3.92;;;0.60;;
85875;SDS011;76392;0.000;0.000;2024-02-26T12:54:40;3.88;;;0.65;;
85875;SDS011;76392;0.000;0.000;2024-02-26T12:57:07;5.60;;;1.10;;
85875;SDS011;76392;0.000;0.000;2024-02-26T12:59:34;1.77;;;0.32;;
85875;SDS011;76392;0.000;0.000;2024-02-26T13:01:59;6.15;;;0.60;;
85875;SDS011;76392;0.000;0.000;2024-02-26T13:04:26;4.68;;;0.38;;
85875;SDS011;76392;0.000;0.000;2024-02-26T13:06:53;2.97;;;0.45;;
85875;SDS011;76392;0.000;0.000;2024-02-26T13:09:18;4.13;;;0.73;;
85875;SDS011;76392;0.000;0.000;2024-02-26T13:11:44;3.63;;;1.02;;
85875;SDS011;76392;0.000;0.000;2024-02-26T13:14:20;2.88;;;0.47;;
85875;SDS011;76392;0.000;0.000;2024-02-26T13:16:54;3.85;;;0.47;;
85875;SDS011;76392;0.000;0.000;2024-02-26T13:19:20;4.22;;;0.40;;
85875;SDS011;76392;0.000;0.000;2024-02-26T13:21:46;2.90;;;0.88;;
85875;SDS011;76392;0.000;0.000;2024-02-26T13:24:12;2.53;;;0.45;;
85875;SDS011;76392;0.000;0.000;2024-02-26T13:26:38;5.55;;;0.45;;
85875;SDS011;76392;0.000;0.000;2024-02-26T13:29:04;2.28;;;0.47;;
85875;SDS011;76392;0.000;0.000;2024-02-26T13:31:38;1.13;;;0.40;;
85875;SDS011;76392;0.000;0.000;2024-02-26T13:34:04;3.47;;;0.60;;
85875;SDS011;76392;0.000;0.000;2024-02-26T13:36:29;2.58;;;0.40;;
85875;SDS011;76392;0.000;0.000;2024-02-26T13:38:56;4.25;;;0.80;;
85875;SDS011;76392;0.000;0.000;2024-02-26T13:41:22;3.67;;;0.65;;
85875;SDS011;76392;0.000;0.000;2024-02-26T13:43:49;3.20;;;0.47;;
85875;SDS011;76392;0.000;0.000;2024-02-26T13:46:17;4.38;;;0.70;;
85875;SDS011;76392;0.000;0.000;2024-02-26T13:48:43;3.28;;;0.95;;
85875;SDS011;76392;0.000;0.000;2024-02-26T13:51:08;1.90;;;0.47;;
85875;SDS011;76392;0.000;0.000;2024-02-26T13:53:34;2.00;;;0.52;;
85875;SDS011;76392;0.000;0.000;2024-02-26T13:55:59;3.67;;;0.50;;
85875;SDS011;76392;0.000;0.000;2024-02-26T13:58:26;3.13;;;0.45;;
85875;SDS011;76392;0.000;0.000;2024-02-26T14:00:52;4.18;;;0.52;;
85875;SDS011;76392;0.000;0.000;2024-02-26T14:03:19;4.85;;;0.43;;
85875;SDS011;76392;0.000;0.000;2024-02-26T14:05:45;2.65;;;0.45;;
85875;SDS011;76392;0.000;0.000;2024-02-26T14:08:11;3.33;;;0.30;;
85875;SDS011;76392;0.000;0.000;2024-02-26T14:10:36;2.55;;;0.40;;
85875;SDS011;76392;0.000;0.000;2024-02-26T14:13:02;3.03;;;0.32;;
85875;SDS011;76392;0.000;0.000;2024-02-26T14:15:28;4.90;;;0.43;;
85875;SDS011;76392;0.000;0.000;2024-02-26T14:17:54;3.35;;;0.40;;
85875;SDS011;76392;0.000;0.000;2024-02-26T14:20:24;4.20;;;0.77;;
85875;SDS011;76392;0.000;0.000;2024-02-26T14:22:51;5.78;;;0.80;;
85875;SDS011;76392;0.000;0.000;2024-02-26T14:25:20;4.53;;;0.60;;
85875;SDS011;76392;0.000;0.000;2024-02-26T14:27:46;3.20;;;0.40;;
85875;SDS011;76392;0.000;0.000;2024-02-26T14:30:12;2.97;;;0.50;;
85875;SDS011;76392;0.000;0.000;2024-02-26T14:32:38;3.03;;;0.40;;
85875;SDS011;76392;0.000;0.000;2024-02-26T14:35:05;2.13;;;0.35;;
85875;SDS011;76392;0.000;0.000;2024-02-26T14:37:32;3.47;;;0.90;;
85875;SDS011;76392;0.000;0.000;2024-02-26T14:39:57;4.78;;;0.55;;
85875;SDS011;76392;0.000;0.000;2024-02-26T14:42:23;3.60;;;0.50;;
85875;SDS011;76392;0.000;0.000;2024-02-26T14:44:49;1.40;;;0.22;;
85875;SDS011;76392;0.000;0.000;2024-02-26T14:47:16;6.38;;;0.45;;
85875;SDS011;76392;0.000;0.000;2024-02-26T14:49:41;3.03;;;0.43;;
85875;SDS011;76392;0.000;0.000;2024-02-26T14:52:07;2.35;;;0.55;;
85875;SDS011;76392;0.000;0.000;2024-02-26T14:54:33;1.67;;;0.32;;
85875;SDS011;76392;0.000;0.000;2024-02-26T14:57:03;3.13;;;0.63;;
85875;SDS011;76392;0.000;0.000;2024-02-26T14:59:30;2.97;;;0.55;;
85875;SDS011;76392;0.000;0.000;2024-02-26T15:01:56;3.10;;;0.30;;
85875;SDS011;76392;0.000;0.000;2024-02-26T15:04:22;3.85;;;0.50;;
85875;SDS011;76392;0.000;0.000;2024-02-26T15:06:48;1.48;;;0.28;;
85875;SDS011;76392;0.000;0.000;2024-02-26T15:09:13;1.92;;;0.50;;
85875;SDS011;76392;0.000;0.000;2024-02-26T15:11:39;2.88;;;0.93;;
85875;SDS011;76392;0.000;0.000;2024-02-26T15:14:05;2.45;;;0.50;;
85875;SDS011;76392;0.000;0.000;2024-02-26T15:16:32;2.65;;;0.60;;
85875;SDS011;76392;0.000;0.000;2024-02-26T15:18:57;2.67;;;0.50;;
85875;SDS011;76392;0.000;0.000;2024-02-26T15:21:23;3.40;;;0.60;;
85875;SDS011;76392;0.000;0.000;2024-02-26T15:23:49;2.53;;;0.38;;
85875;SDS011;76392;0.000;0.000;2024-02-26T15:26:15;1.58;;;0.30;;
85875;SDS011;76392;0.000;0.000;2024-02-26T15:28:43;1.27;;;0.20;;
85875;SDS011;76392;0.000;0.000;2024-02-26T15:31:08;2.42;;;0.70;;
85875;SDS011;76392;0.000;0.000;2024-02-26T15:33:34;3.05;;;0.40;;
85875;SDS011;76392;0.000;0.000;2024-02-26T15:35:59;1.77;;;0.30;;
85875;SDS011;76392;0.000;0.000;2024-02-26T15:38:25;2.08;;;0.55;;
85875;SDS011;76392;0.000;0.000;2024-02-26T15:40:50;2.67;;;0.70;;
85875;SDS011;76392;0.000;0.000;2024-02-26T15:43:16;2.17;;;0.32;;
85875;SDS011;76392;0.000;0.000;2024-02-26T15:45:41;2.35;;;0.25;;
85875;SDS011;76392;0.000;0.000;2024-02-26T15:48:07;2.72;;;0.32;;
85875;SDS011;76392;0.000;0.000;2024-02-26T15:50:32;2.08;;;0.17;;
85875;SDS011;76392;0.000;0.000;2024-02-26T15:52:58;2.65;;;0.28;;
85875;SDS011;76392;0.000;0.000;2024-02-26T15:55:24;4.93;;;0.40;;
85875;SDS011;76392;0.000;0.000;2024-02-26T15:57:49;4.18;;;0.70;;
85875;SDS011;76392;0.000;0.000;2024-02-26T16:00:15;2.75;;;0.30;;
85875;SDS011;76392;0.000;0.000;2024-02-26T16:02:41;2.17;;;0.60;;
85875;SDS011;76392;0.000;0.000;2024-02-26T16:05:07;1.77;;;0.25;;
85875;SDS011;76392;0.000;0.000;2024-02-26T16:10:04;3.45;;;0.30;;
85875;SDS011;76392;0.000;0.000;2024-02-26T16:12:32;2.92;;;0.30;;
85875;SDS011;76392;0.000;0.000;2024-02-26T16:15:02;3.83;;;0.55;;
85875;SDS011;76392;0.000;0.000;2024-02-26T16:17:29;2.60;;;0.43;;
85875;SDS011;76392;0.000;0.000;2024-02-26T16:22:23;2.78;;;0.30;;
85875;SDS011;76392;0.000;0.000;2024-02-26T16:24:49;5.28;;;0.38;;
85875;SDS011;76392;0.000;0.000;2024-02-26T16:27:15;3.35;;;0.63;;
85875;SDS011;76392;0.000;0.000;2024-02-26T16:29:40;1.75;;;0.43;;
85875;SDS011;76392;0.000;0.000;2024-02-26T16:32:06;2.20;;;0.30;;
85875;SDS011;76392;0.000;0.000;2024-02-26T16:34:33;2.00;;;0.55;;
85875;SDS011;76392;0.000;0.000;2024-02-26T16:36:59;3.33;;;0.30;;
85875;SDS011;76392;0.000;0.000;2024-02-26T16:39:25;2.97;;;0.40;;
85875;SDS011;76392;0.000;0.000;2024-02-26T16:41:50;3.72;;;0.57;;
85875;SDS011;76392;0.000;0.000;2024-02-26T16:44:16;4.70;;;0.50;;
85875;SDS011;76392;0.000;0.000;2024-02-26T16:46:41;3.08;;;0.50;;
85875;SDS011;76392;0.000;0.000;2024-02-26T16:49:07;2.70;;;0.38;;
85875;SDS011;76392;0.000;0.000;2024-02-26T16:51:33;3.50;;;0.40;;
85875;SDS011;76392;0.000;0.000;2024-02-26T16:54:03;3.33;;;0.50;;
85875;SDS011;76392;0.000;0.000;2024-02-26T16:56:29;2.33;;;0.40;;
85875;SDS011;76392;0.000;0.000;2024-02-26T16:58:54;3.85;;;0.50;;
85875;SDS011;76392;0.000;0.000;2024-02-26T17:01:20;2.55;;;0.40;;
85875;SDS011;76392;0.000;0.000;2024-02-26T17:03:45;3.70;;;0.93;;
85875;SDS011;76392;0.000;0.000;2024-02-26T17:06:11;3.67;;;0.60;;
85875;SDS011;76392;0.000;0.000;2024-02-26T17:08:36;2.65;;;0.60;;
85875;SDS011;76392;0.000;0.000;2024-02-26T17:11:02;3.20;;;0.45;;
85875;SDS011;76392;0.000;0.000;2024-02-26T17:13:29;3.45;;;0.55;;
85875;SDS011;76392;0.000;0.000;2024-02-26T17:15:55;1.75;;;0.40;;
85875;SDS011;76392;0.000;0.000;2024-02-26T17:18:20;2.17;;;0.47;;
85875;SDS011;76392;0.000;0.000;2024-02-26T17:20:46;1.50;;;0.50;;
85875;SDS011;76392;0.000;0.000;2024-02-26T17:23:13;2.40;;;0.40;;
85875;SDS011;76392;0.000;0.000;2024-02-26T17:25:39;1.63;;;0.30;;
85875;SDS011;76392;0.000;0.000;2024-02-26T17:28:05;2.35;;;0.52;;
85875;SDS011;76392;0.000;0.000;2024-02-26T17:30:30;2.45;;;0.40;;
85875;SDS011;76392;0.000;0.000;2024-02-26T17:32:56;2.53;;;0.30;;
85875;SDS011;76392;0.000;0.000;2024-02-26T17:35:22;3.20;;;0.68;;
85875;SDS011;76392;0.000;0.000;2024-02-26T17:37:47;2.97;;;0.43;;
85875;SDS011;76392;0.000;0.000;2024-02-26T17:40:13;2.00;;;0.52;;
85875;SDS011;76392;0.000;0.000;2024-02-26T17:42:38;1.88;;;0.40;;
85875;SDS011;76392;0.000;0.000;2024-02-26T17:45:04;3.50;;;0.88;;
85875;SDS011;76392;0.000;0.000;2024-02-26T17:47:30;2.55;;;0.40;;
85875;SDS011;76392;0.000;0.000;2024-02-26T17:49:56;3.42;;;0.55;;
85875;SDS011;76392;0.000;0.000;2024-02-26T17:52:22;4.38;;;0.70;;
85875;SDS011;76392;0.000;0.000;2024-02-26T17:54:48;2.20;;;0.82;;
85875;SDS011;76392;0.000;0.000;2024-02-26T17:57:14;2.97;;;0.52;;
85875;SDS011;76392;0.000;0.000;2024-02-26T17:59:39;2.85;;;0.80;;
85875;SDS011;76392;0.000;0.000;2024-02-26T18:02:05;2.97;;;0.82;;
85875;SDS011;76392;0.000;0.000;2024-02-26T18:04:31;2.63;;;0.82;;
85875;SDS011;76392;0.000;0.000;2024-02-26T18:06:57;4.80;;;1.10;;
85875;SDS011;76392;0.000;0.000;2024-02-26T18:09:23;5.68;;;1.30;;
85875;SDS011;76392;0.000;0.000;2024-02-26T18:11:51;5.00;;;1.00;;
85875;SDS011;76392;0.000;0.000;2024-02-26T18:14:18;4.32;;;0.85;;
85875;SDS011;76392;0.000;0.000;2024-02-26T18:16:45;5.13;;;1.30;;
85875;SDS011;76392;0.000;0.000;2024-02-26T18:19:13;3.97;;;0.95;;
85875;SDS011;76392;0.000;0.000;2024-02-26T18:21:38;3.72;;;0.82;;
85875;SDS011;76392;0.000;0.000;2024-02-26T18:24:04;4.13;;;0.95;;
85875;SDS011;76392;0.000;0.000;2024-02-26T18:26:30;3.50;;;0.88;;
85875;SDS011;76392;0.000;0.000;2024-02-26T18:28:55;4.47;;;0.90;;
85875;SDS011;76392;0.000;0.000;2024-02-26T18:31:21;4.40;;;1.23;;
85875;SDS011;76392;0.000;0.000;2024-02-26T18:33:47;3.00;;;0.70;;
85875;SDS011;76392;0.000;0.000;2024-02-26T18:36:12;4.75;;;1.20;;
85875;SDS011;76392;0.000;0.000;2024-02-26T18:38:40;4.25;;;1.00;;
85875;SDS011;76392;0.000;0.000;2024-02-26T18:41:06;4.97;;;1.38;;
85875;SDS011;76392;0.000;0.000;2024-02-26T18:43:32;4.82;;;1.25;;
85875;SDS011;76392;0.000;0.000;2024-02-26T18:45:58;3.20;;;1.10;;
85875;SDS011;76392;0.000;0.000;2024-02-26T18:48:24;4.20;;;1.50;;
85875;SDS011;76392;0.000;0.000;2024-02-26T18:50:50;4.40;;;1.65;;
85875;SDS011;76392;0.000;0.000;2024-02-26T18:53:16;4.38;;;1.70;;
85875;SDS011;76392;0.000;0.000;2024-02-26T18:55:41;6.82;;;1.83;;
85875;SDS011;76392;0.000;0.000;2024-02-26T18:58:07;4.88;;;1.52;;
85875;SDS011;76392;0.000;0.000;2024-02-26T19:00:32;4.28;;;1.33;;
85875;SDS011;76392;0.000;0.000;2024-02-26T19:02:58;7.88;;;2.00;;
85875;SDS011;76392;0.000;0.000;2024-02-26T19:05:23;4.28;;;1.75;;
85875;SDS011;76392;0.000;0.000;2024-02-26T19:07:51;5.22;;;1.90;;
85875;SDS011;76392;0.000;0.000;2024-02-26T19:10:23;6.90;;;1.75;;
85875;SDS011;76392;0.000;0.000;2024-02-26T19:12:50;5.07;;;1.63;;
85875;SDS011;76392;0.000;0.000;2024-02-26T19:15:16;4.00;;;1.35;;
85875;SDS011;76392;0.000;0.000;2024-02-26T19:17:45;4.60;;;1.67;;
85875;SDS011;76392;0.000;0.000;2024-02-26T19:20:11;4.68;;;1.60;;
85875;SDS011;76392;0.000;0.000;2024-02-26T19:22:36;5.00;;;1.45;;
85875;SDS011;76392;0.000;0.000;2024-02-26T19:25:10;4.00;;;1.80;;
85875;SDS011;76392;0.000;0.000;2024-02-26T19:27:36;4.07;;;1.55;;
85875;SDS011;76392;0.000;0.000;2024-02-26T19:30:02;4.28;;;1.42;;
85875;SDS011;76392;0.000;0.000;2024-02-26T19:32:29;4.78;;;1.63;;
85875;SDS011;76392;0.000;0.000;2024-02-26T19:34:55;4.32;;;1.23;;
85875;SDS011;76392;0.000;0.000;2024-02-26T19:37:22;4.10;;;1.58;;
85875;SDS011;76392;0.000;0.000;2024-02-26T19:39:48;4.57;;;1.58;;
85875;SDS011;76392;0.000;0.000;2024-02-26T19:42:13;4.55;;;2.13;;
85875;SDS011;76392;0.000;0.000;2024-02-26T19:44:39;5.32;;;1.30;;
85875;SDS011;76392;0.000;0.000;2024-02-26T19:47:04;4.30;;;1.23;;
85875;SDS011;76392;0.000;0.000;2024-02-26T19:49:30;3.35;;;1.30;;
85875;SDS011;76392;0.000;0.000;2024-02-26T19:51:56;4.22;;;1.33;;
85875;SDS011;76392;0.000;0.000;2024-02-26T19:54:21;3.80;;;1.10;;
85875;SDS011;76392;0.000;0.000;2024-02-26T19:56:47;3.75;;;1.20;;
85875;SDS011;76392;0.000;0.000;2024-02-26T19:59:13;3.90;;;0.95;;
85875;SDS011;76392;0.000;0.000;2024-02-26T20:01:39;4.30;;;1.10;;
85875;SDS011;76392;0.000;0.000;2024-02-26T20:04:06;2.75;;;0.80;;
85875;SDS011;76392;0.000;0.000;2024-02-26T20:06:39;3.75;;;1.30;;
85875;SDS011;76392;0.000;0.000;2024-02-26T20:09:06;5.13;;;0.90;;
85875;SDS011;76392;0.000;0.000;2024-02-26T20:11:35;3.53;;;0.80;;
85875;SDS011;76392;0.000;0.000;2024-02-26T20:14:02;3.50;;;0.93;;
85875;SDS011;76392;0.000;0.000;2024-02-26T20:16:28;4.72;;;1.63;;
85875;SDS011;76392;0.000;0.000;2024-02-26T20:18:53;4.60;;;1.25;;
85875;SDS011;76392;0.000;0.000;2024-02-26T20:21:20;3.83;;;1.00;;
85875;SDS011;76392;0.000;0.000;2024-02-26T20:23:45;4.15;;;1.42;;
85875;SDS011;76392;0.000;0.000;2024-02-26T20:26:12;6.70;;;1.63;;
85875;SDS011;76392;0.000;0.000;2024-02-26T20:28:38;3.65;;;1.15;;
85875;SDS011;76392;0.000;0.000;2024-02-26T20:31:04;4.35;;;1.45;;
85875;SDS011;76392;0.000;0.000;2024-02-26T20:33:30;4.10;;;1.00;;
85875;SDS011;76392;0.000;0.000;2024-02-26T20:35:56;3.40;;;1.10;;
85875;SDS011;76392;0.000;0.000;2024-02-26T20:38:21;4.18;;;1.60;;
85875;SDS011;76392;0.000;0.000;2024-02-26T20:40:47;3.55;;;1.20;;
85875;SDS011;76392;0.000;0.000;2024-02-26T20:43:13;3.83;;;1.35;;
85875;SDS011;76392;0.000;0.000;2024-02-26T20:45:39;6.18;;;1.52;;
85875;SDS011;76392;0.000;0.000;2024-02-26T20:48:05;4.25;;;1.23;;
85875;SDS011;76392;0.000;0.000;2024-02-26T20:50:31;4.68;;;1.33;;